sensor_id;sensor_type;location;lat;lon;timestamp;temperature;humidity
40454;DHT22;26160;51.858;4.398;2023-04-06T00:02:18;6.70;99.90
40454;DHT22;26160;51.858;4.398;2023-04-06T00:04:44;6.60;99.90
40454;DHT22;26160;51.858;4.398;2023-04-06T00:07:10;6.60;99.90
40454;DHT22;26160;51.858;4.398;2023-04-06T00:09:36;6.60;99.90
40454;DHT22;26160;51.858;4.398;2023-04-06T00:12:03;6.50;99.90
40454;DHT22;26160;51.858;4.398;2023-04-06T00:14:29;6.50;99.90
40454;DHT22;26160;51.858;4.398;2023-04-06T00:16:56;6.40;99.90
40454;DHT22;26160;51.858;4.398;2023-04-06T00:19:22;6.40;99.90
40454;DHT22;26160;51.858;4.398;2023-04-06T00:21:48;6.40;99.90
40454;DHT22;26160;51.858;4.398;2023-04-06T00:24:15;6.30;99.90
40454;DHT22;26160;51.858;4.398;2023-04-06T00:26:41;6.30;99.90
40454;DHT22;26160;51.858;4.398;2023-04-06T00:29:07;6.20;99.90
40454;DHT22;26160;51.858;4.398;2023-04-06T00:31:33;6.20;99.90
40454;DHT22;26160;51.858;4.398;2023-04-06T00:33:59;6.10;99.90
40454;DHT22;26160;51.858;4.398;2023-04-06T00:36:26;6.00;99.90
40454;DHT22;26160;51.858;4.398;2023-04-06T00:38:52;6.00;99.90
40454;DHT22;26160;51.858;4.398;2023-04-06T00:41:18;5.90;99.90
40454;DHT22;26160;51.858;4.398;2023-04-06T00:43:44;5.80;99.90
40454;DHT22;26160;51.858;4.398;2023-04-06T00:46:10;5.80;99.90
40454;DHT22;26160;51.858;4.398;2023-04-06T00:48:37;5.80;99.90
40454;DHT22;26160;51.858;4.398;2023-04-06T00:51:03;5.70;99.90
40454;DHT22;26160;51.858;4.398;2023-04-06T00:53:29;5.70;99.90
40454;DHT22;26160;51.858;4.398;2023-04-06T00:55:55;5.70;99.90
40454;DHT22;26160;51.858;4.398;2023-04-06T00:58:21;5.60;99.90
40454;DHT22;26160;51.858;4.398;2023-04-06T01:03:24;5.60;99.90
40454;DHT22;26160;51.858;4.398;2023-04-06T01:05:51;5.60;99.90
40454;DHT22;26160;51.858;4.398;2023-04-06T01:08:24;5.60;99.90
40454;DHT22;26160;51.858;4.398;2023-04-06T01:10:54;5.50;99.90
40454;DHT22;26160;51.858;4.398;2023-04-06T01:13:20;5.60;99.90
40454;DHT22;26160;51.858;4.398;2023-04-06T01:15:47;5.60;99.90
40454;DHT22;26160;51.858;4.398;2023-04-06T01:18:13;5.60;99.90
40454;DHT22;26160;51.858;4.398;2023-04-06T01:20:39;5.60;99.90
40454;DHT22;26160;51.858;4.398;2023-04-06T01:23:06;5.60;99.90
40454;DHT22;26160;51.858;4.398;2023-04-06T01:25:32;5.60;99.90
40454;DHT22;26160;51.858;4.398;2023-04-06T01:27:58;5.50;99.90
40454;DHT22;26160;51.858;4.398;2023-04-06T01:30:30;5.50;99.90
40454;DHT22;26160;51.858;4.398;2023-04-06T01:32:56;5.50;99.90
40454;DHT22;26160;51.858;4.398;2023-04-06T01:35:22;5.50;99.90
40454;DHT22;26160;51.858;4.398;2023-04-06T01:37:48;5.50;99.90
40454;DHT22;26160;51.858;4.398;2023-04-06T01:40:14;5.50;99.90
40454;DHT22;26160;51.858;4.398;2023-04-06T01:42:41;5.60;99.90
40454;DHT22;26160;51.858;4.398;2023-04-06T01:45:08;5.70;99.90
40454;DHT22;26160;51.858;4.398;2023-04-06T01:47:34;5.70;99.90
40454;DHT22;26160;51.858;4.398;2023-04-06T01:50:00;5.70;99.90
40454;DHT22;26160;51.858;4.398;2023-04-06T01:52:26;5.60;99.90
40454;DHT22;26160;51.858;4.398;2023-04-06T01:54:53;5.70;99.90
40454;DHT22;26160;51.858;4.398;2023-04-06T01:57:19;5.70;99.90
40454;DHT22;26160;51.858;4.398;2023-04-06T01:59:45;5.70;99.90
40454;DHT22;26160;51.858;4.398;2023-04-06T02:02:11;5.70;99.90
40454;DHT22;26160;51.858;4.398;2023-04-06T02:04:38;5.80;99.90
40454;DHT22;26160;51.858;4.398;2023-04-06T02:07:04;5.80;99.90
40454;DHT22;26160;51.858;4.398;2023-04-06T02:09:31;5.80;99.90
40454;DHT22;26160;51.858;4.398;2023-04-06T02:11:57;5.90;99.90
40454;DHT22;26160;51.858;4.398;2023-04-06T02:14:25;5.90;99.90
40454;DHT22;26160;51.858;4.398;2023-04-06T02:16:51;6.00;99.90
40454;DHT22;26160;51.858;4.398;2023-04-06T02:19:19;6.00;99.90
40454;DHT22;26160;51.858;4.398;2023-04-06T02:21:45;6.00;99.90
40454;DHT22;26160;51.858;4.398;2023-04-06T02:24:11;6.00;99.90
40454;DHT22;26160;51.858;4.398;2023-04-06T02:26:37;6.10;99.90
40454;DHT22;26160;51.858;4.398;2023-04-06T02:29:03;6.10;99.90
40454;DHT22;26160;51.858;4.398;2023-04-06T02:31:35;6.10;99.90
40454;DHT22;26160;51.858;4.398;2023-04-06T02:34:01;6.10;99.90
40454;DHT22;26160;51.858;4.398;2023-04-06T02:36:27;6.10;99.90
40454;DHT22;26160;51.858;4.398;2023-04-06T02:38:53;6.10;99.90
40454;DHT22;26160;51.858;4.398;2023-04-06T02:41:19;6.10;99.90
40454;DHT22;26160;51.858;4.398;2023-04-06T02:43:45;6.10;99.90
40454;DHT22;26160;51.858;4.398;2023-04-06T02:46:11;6.10;99.90
40454;DHT22;26160;51.858;4.398;2023-04-06T02:48:37;6.10;99.90
40454;DHT22;26160;51.858;4.398;2023-04-06T02:51:04;6.10;99.90
40454;DHT22;26160;51.858;4.398;2023-04-06T02:53:31;6.10;99.90
40454;DHT22;26160;51.858;4.398;2023-04-06T02:55:57;6.10;99.90
40454;DHT22;26160;51.858;4.398;2023-04-06T02:58:23;6.10;99.90
40454;DHT22;26160;51.858;4.398;2023-04-06T03:00:49;6.10;99.90
40454;DHT22;26160;51.858;4.398;2023-04-06T03:03:15;6.10;99.90
40454;DHT22;26160;51.858;4.398;2023-04-06T03:05:41;6.20;99.90
40454;DHT22;26160;51.858;4.398;2023-04-06T03:08:07;6.20;99.90
40454;DHT22;26160;51.858;4.398;2023-04-06T03:10:33;6.20;99.90
40454;DHT22;26160;51.858;4.398;2023-04-06T03:12:59;6.20;99.90
40454;DHT22;26160;51.858;4.398;2023-04-06T03:15:26;6.20;99.90
40454;DHT22;26160;51.858;4.398;2023-04-06T03:17:52;6.30;99.90
40454;DHT22;26160;51.858;4.398;2023-04-06T03:20:18;6.30;99.90
40454;DHT22;26160;51.858;4.398;2023-04-06T03:22:44;6.30;99.90
40454;DHT22;26160;51.858;4.398;2023-04-06T03:25:10;6.30;99.90
40454;DHT22;26160;51.858;4.398;2023-04-06T03:27:36;6.30;99.90
40454;DHT22;26160;51.858;4.398;2023-04-06T03:30:02;6.30;99.90
40454;DHT22;26160;51.858;4.398;2023-04-06T03:32:29;6.30;99.90
40454;DHT22;26160;51.858;4.398;2023-04-06T03:34:55;6.30;99.90
40454;DHT22;26160;51.858;4.398;2023-04-06T03:37:21;6.30;99.90
40454;DHT22;26160;51.858;4.398;2023-04-06T03:39:47;6.40;99.90
40454;DHT22;26160;51.858;4.398;2023-04-06T03:42:13;6.40;99.90
40454;DHT22;26160;51.858;4.398;2023-04-06T03:44:39;6.40;99.90
40454;DHT22;26160;51.858;4.398;2023-04-06T03:47:05;6.40;99.90
40454;DHT22;26160;51.858;4.398;2023-04-06T03:49:40;6.40;99.90
40454;DHT22;26160;51.858;4.398;2023-04-06T03:52:06;6.40;99.90
40454;DHT22;26160;51.858;4.398;2023-04-06T03:54:32;6.40;99.90
40454;DHT22;26160;51.858;4.398;2023-04-06T03:57:01;6.40;99.90
40454;DHT22;26160;51.858;4.398;2023-04-06T03:59:30;6.40;99.90
40454;DHT22;26160;51.858;4.398;2023-04-06T04:02:00;6.40;99.90
40454;DHT22;26160;51.858;4.398;2023-04-06T04:04:26;6.50;99.90
40454;DHT22;26160;51.858;4.398;2023-04-06T04:06:52;6.50;99.90
40454;DHT22;26160;51.858;4.398;2023-04-06T04:09:18;6.40;99.90
40454;DHT22;26160;51.858;4.398;2023-04-06T04:11:44;6.40;99.90
40454;DHT22;26160;51.858;4.398;2023-04-06T04:14:10;6.50;99.90
40454;DHT22;26160;51.858;4.398;2023-04-06T04:16:36;6.50;99.90
40454;DHT22;26160;51.858;4.398;2023-04-06T04:19:02;6.40;99.90
40454;DHT22;26160;51.858;4.398;2023-04-06T04:21:29;6.50;99.90
40454;DHT22;26160;51.858;4.398;2023-04-06T04:23:56;6.50;99.90
40454;DHT22;26160;51.858;4.398;2023-04-06T04:26:24;6.50;99.90
40454;DHT22;26160;51.858;4.398;2023-04-06T04:28:50;6.50;99.90
40454;DHT22;26160;51.858;4.398;2023-04-06T04:31:16;6.50;99.90
40454;DHT22;26160;51.858;4.398;2023-04-06T04:33:48;6.50;99.90
40454;DHT22;26160;51.858;4.398;2023-04-06T04:36:14;6.50;99.90
40454;DHT22;26160;51.858;4.398;2023-04-06T04:38:40;6.50;99.90
40454;DHT22;26160;51.858;4.398;2023-04-06T04:41:16;6.60;99.90
40454;DHT22;26160;51.858;4.398;2023-04-06T04:43:42;6.50;99.90
40454;DHT22;26160;51.858;4.398;2023-04-06T04:46:08;6.60;99.90
40454;DHT22;26160;51.858;4.398;2023-04-06T04:48:35;6.60;99.90
40454;DHT22;26160;51.858;4.398;2023-04-06T04:51:01;6.60;99.90
40454;DHT22;26160;51.858;4.398;2023-04-06T04:53:27;6.60;99.90
40454;DHT22;26160;51.858;4.398;2023-04-06T04:55:53;6.70;99.90
40454;DHT22;26160;51.858;4.398;2023-04-06T04:58:19;6.70;99.90
40454;DHT22;26160;51.858;4.398;2023-04-06T05:00:46;6.70;99.90
40454;DHT22;26160;51.858;4.398;2023-04-06T05:03:54;6.70;99.90
40454;DHT22;26160;51.858;4.398;2023-04-06T05:06:18;6.70;99.90
40454;DHT22;26160;51.858;4.398;2023-04-06T05:08:45;6.80;99.90
40454;DHT22;26160;51.858;4.398;2023-04-06T05:11:11;6.70;99.90
40454;DHT22;26160;51.858;4.398;2023-04-06T05:13:37;6.70;99.90
40454;DHT22;26160;51.858;4.398;2023-04-06T05:16:03;6.70;99.90
40454;DHT22;26160;51.858;4.398;2023-04-06T05:18:30;6.80;99.90
40454;DHT22;26160;51.858;4.398;2023-04-06T05:20:56;6.80;99.90
40454;DHT22;26160;51.858;4.398;2023-04-06T05:23:22;6.80;99.90
40454;DHT22;26160;51.858;4.398;2023-04-06T05:25:49;6.80;99.90
40454;DHT22;26160;51.858;4.398;2023-04-06T05:28:15;6.90;99.90
40454;DHT22;26160;51.858;4.398;2023-04-06T05:30:42;6.90;99.90
40454;DHT22;26160;51.858;4.398;2023-04-06T05:33:10;6.90;99.90
40454;DHT22;26160;51.858;4.398;2023-04-06T05:35:36;7.00;99.90
40454;DHT22;26160;51.858;4.398;2023-04-06T05:38:02;7.00;99.90
40454;DHT22;26160;51.858;4.398;2023-04-06T05:40:28;7.00;99.90
40454;DHT22;26160;51.858;4.398;2023-04-06T05:42:54;7.10;99.90
40454;DHT22;26160;51.858;4.398;2023-04-06T05:45:21;7.20;99.90
40454;DHT22;26160;51.858;4.398;2023-04-06T05:47:47;7.20;99.90
40454;DHT22;26160;51.858;4.398;2023-04-06T05:50:14;7.20;99.90
40454;DHT22;26160;51.858;4.398;2023-04-06T05:52:40;7.20;99.90
40454;DHT22;26160;51.858;4.398;2023-04-06T05:55:09;7.20;99.90
40454;DHT22;26160;51.858;4.398;2023-04-06T05:57:36;7.30;99.90
40454;DHT22;26160;51.858;4.398;2023-04-06T06:00:03;7.30;99.90
40454;DHT22;26160;51.858;4.398;2023-04-06T06:02:32;7.30;99.90
40454;DHT22;26160;51.858;4.398;2023-04-06T06:04:58;7.30;99.90
40454;DHT22;26160;51.858;4.398;2023-04-06T06:07:24;7.30;99.90
40454;DHT22;26160;51.858;4.398;2023-04-06T06:09:50;7.30;99.90
40454;DHT22;26160;51.858;4.398;2023-04-06T06:12:16;7.30;99.90
40454;DHT22;26160;51.858;4.398;2023-04-06T06:14:42;7.40;99.90
40454;DHT22;26160;51.858;4.398;2023-04-06T06:17:08;7.40;99.90
40454;DHT22;26160;51.858;4.398;2023-04-06T06:19:36;7.40;99.90
40454;DHT22;26160;51.858;4.398;2023-04-06T06:22:02;7.40;99.90
40454;DHT22;26160;51.858;4.398;2023-04-06T06:24:29;7.50;99.90
40454;DHT22;26160;51.858;4.398;2023-04-06T06:26:58;7.50;99.90
40454;DHT22;26160;51.858;4.398;2023-04-06T06:29:24;7.50;99.90
40454;DHT22;26160;51.858;4.398;2023-04-06T06:31:50;7.60;99.90
40454;DHT22;26160;51.858;4.398;2023-04-06T06:34:17;7.50;99.90
40454;DHT22;26160;51.858;4.398;2023-04-06T06:36:43;7.60;99.90
40454;DHT22;26160;51.858;4.398;2023-04-06T06:39:21;7.70;99.90
40454;DHT22;26160;51.858;4.398;2023-04-06T06:41:48;7.70;99.90
40454;DHT22;26160;51.858;4.398;2023-04-06T06:44:47;7.70;99.90
40454;DHT22;26160;51.858;4.398;2023-04-06T06:47:40;7.70;99.90
40454;DHT22;26160;51.858;4.398;2023-04-06T06:50:07;7.70;99.90
40454;DHT22;26160;51.858;4.398;2023-04-06T06:52:33;7.80;99.90
40454;DHT22;26160;51.858;4.398;2023-04-06T06:57:35;7.80;99.90
40454;DHT22;26160;51.858;4.398;2023-04-06T07:00:01;7.90;99.90
40454;DHT22;26160;51.858;4.398;2023-04-06T07:02:28;7.90;99.90
40454;DHT22;26160;51.858;4.398;2023-04-06T07:04:54;7.90;99.90
40454;DHT22;26160;51.858;4.398;2023-04-06T07:07:20;7.80;99.90
40454;DHT22;26160;51.858;4.398;2023-04-06T07:09:46;7.90;99.90
40454;DHT22;26160;51.858;4.398;2023-04-06T07:12:12;7.90;99.90
40454;DHT22;26160;51.858;4.398;2023-04-06T07:14:38;7.90;99.90
40454;DHT22;26160;51.858;4.398;2023-04-06T07:17:04;7.80;99.90
40454;DHT22;26160;51.858;4.398;2023-04-06T07:19:30;7.90;99.90
40454;DHT22;26160;51.858;4.398;2023-04-06T07:21:56;7.90;99.90
40454;DHT22;26160;51.858;4.398;2023-04-06T07:24:26;7.90;99.90
40454;DHT22;26160;51.858;4.398;2023-04-06T07:26:52;8.00;99.90
40454;DHT22;26160;51.858;4.398;2023-04-06T07:29:18;8.10;99.90
40454;DHT22;26160;51.858;4.398;2023-04-06T07:31:44;8.10;99.90
40454;DHT22;26160;51.858;4.398;2023-04-06T07:34:10;8.20;99.90
40454;DHT22;26160;51.858;4.398;2023-04-06T07:36:36;8.20;99.90
40454;DHT22;26160;51.858;4.398;2023-04-06T07:39:02;8.20;99.90
40454;DHT22;26160;51.858;4.398;2023-04-06T07:41:29;8.20;99.90
40454;DHT22;26160;51.858;4.398;2023-04-06T07:43:57;8.20;99.90
40454;DHT22;26160;51.858;4.398;2023-04-06T07:46:24;8.20;99.90
40454;DHT22;26160;51.858;4.398;2023-04-06T07:48:50;8.20;99.90
40454;DHT22;26160;51.858;4.398;2023-04-06T07:51:17;8.20;99.90
40454;DHT22;26160;51.858;4.398;2023-04-06T07:53:46;8.30;99.90
40454;DHT22;26160;51.858;4.398;2023-04-06T07:56:12;8.20;99.90
40454;DHT22;26160;51.858;4.398;2023-04-06T08:01:28;8.20;99.90
40454;DHT22;26160;51.858;4.398;2023-04-06T08:03:57;8.10;99.90
40454;DHT22;26160;51.858;4.398;2023-04-06T08:06:23;8.10;99.90
40454;DHT22;26160;51.858;4.398;2023-04-06T08:08:49;8.10;99.90
40454;DHT22;26160;51.858;4.398;2023-04-06T08:11:15;8.10;99.90
40454;DHT22;26160;51.858;4.398;2023-04-06T08:13:42;8.10;99.90
40454;DHT22;26160;51.858;4.398;2023-04-06T08:16:08;8.10;99.90
40454;DHT22;26160;51.858;4.398;2023-04-06T08:18:34;8.00;99.90
40454;DHT22;26160;51.858;4.398;2023-04-06T08:21:00;8.00;99.90
40454;DHT22;26160;51.858;4.398;2023-04-06T08:23:26;7.90;99.90
40454;DHT22;26160;51.858;4.398;2023-04-06T08:25:52;8.00;99.90
40454;DHT22;26160;51.858;4.398;2023-04-06T08:28:20;7.90;99.90
40454;DHT22;26160;51.858;4.398;2023-04-06T08:30:47;8.00;99.90
40454;DHT22;26160;51.858;4.398;2023-04-06T08:33:13;8.00;99.90
40454;DHT22;26160;51.858;4.398;2023-04-06T08:35:39;7.90;99.90
40454;DHT22;26160;51.858;4.398;2023-04-06T08:38:06;7.90;99.90
40454;DHT22;26160;51.858;4.398;2023-04-06T08:40:39;7.90;99.90
40454;DHT22;26160;51.858;4.398;2023-04-06T08:43:09;7.90;99.90
40454;DHT22;26160;51.858;4.398;2023-04-06T08:45:35;7.90;99.90
40454;DHT22;26160;51.858;4.398;2023-04-06T08:48:02;7.90;99.90
40454;DHT22;26160;51.858;4.398;2023-04-06T08:50:35;8.00;99.90
40454;DHT22;26160;51.858;4.398;2023-04-06T08:53:06;8.00;99.90
40454;DHT22;26160;51.858;4.398;2023-04-06T08:55:35;8.00;99.90
40454;DHT22;26160;51.858;4.398;2023-04-06T08:58:14;8.00;99.90
40454;DHT22;26160;51.858;4.398;2023-04-06T09:00:57;8.00;99.90
40454;DHT22;26160;51.858;4.398;2023-04-06T09:03:28;7.90;99.90
40454;DHT22;26160;51.858;4.398;2023-04-06T09:06:01;8.00;99.90
40454;DHT22;26160;51.858;4.398;2023-04-06T09:08:33;8.00;99.90
40454;DHT22;26160;51.858;4.398;2023-04-06T09:11:01;8.00;99.90
40454;DHT22;26160;51.858;4.398;2023-04-06T09:14:02;8.00;99.90
40454;DHT22;26160;51.858;4.398;2023-04-06T09:16:44;8.10;99.90
40454;DHT22;26160;51.858;4.398;2023-04-06T09:19:48;8.10;99.90
40454;DHT22;26160;51.858;4.398;2023-04-06T09:25:26;8.10;99.90
40454;DHT22;26160;51.858;4.398;2023-04-06T09:28:03;8.00;99.90
40454;DHT22;26160;51.858;4.398;2023-04-06T09:30:33;7.90;99.90
40454;DHT22;26160;51.858;4.398;2023-04-06T09:33:02;7.90;99.90
40454;DHT22;26160;51.858;4.398;2023-04-06T09:35:29;7.90;99.90
40454;DHT22;26160;51.858;4.398;2023-04-06T09:37:57;7.90;99.90
40454;DHT22;26160;51.858;4.398;2023-04-06T09:40:24;8.00;99.90
40454;DHT22;26160;51.858;4.398;2023-04-06T09:42:51;8.00;99.90
40454;DHT22;26160;51.858;4.398;2023-04-06T09:45:19;8.00;99.90
40454;DHT22;26160;51.858;4.398;2023-04-06T09:47:46;7.90;99.90
40454;DHT22;26160;51.858;4.398;2023-04-06T09:50:13;7.90;99.90
40454;DHT22;26160;51.858;4.398;2023-04-06T09:52:51;8.00;99.90
40454;DHT22;26160;51.858;4.398;2023-04-06T09:55:27;7.90;99.90
40454;DHT22;26160;51.858;4.398;2023-04-06T09:58:07;8.00;99.90
40454;DHT22;26160;51.858;4.398;2023-04-06T10:00:44;8.00;99.90
40454;DHT22;26160;51.858;4.398;2023-04-06T10:03:45;7.90;99.90
40454;DHT22;26160;51.858;4.398;2023-04-06T10:06:20;7.90;99.90
40454;DHT22;26160;51.858;4.398;2023-04-06T10:08:47;7.90;99.90
40454;DHT22;26160;51.858;4.398;2023-04-06T10:11:16;8.00;99.90
40454;DHT22;26160;51.858;4.398;2023-04-06T10:13:42;8.00;99.90
40454;DHT22;26160;51.858;4.398;2023-04-06T10:16:10;8.00;99.90
40454;DHT22;26160;51.858;4.398;2023-04-06T10:18:39;8.00;99.90
40454;DHT22;26160;51.858;4.398;2023-04-06T10:21:12;8.00;99.90
40454;DHT22;26160;51.858;4.398;2023-04-06T10:24:01;8.10;99.90
40454;DHT22;26160;51.858;4.398;2023-04-06T10:26:27;8.00;99.90
40454;DHT22;26160;51.858;4.398;2023-04-06T10:28:54;8.10;99.90
40454;DHT22;26160;51.858;4.398;2023-04-06T10:31:28;8.20;99.90
40454;DHT22;26160;51.858;4.398;2023-04-06T10:34:02;8.20;99.90
40454;DHT22;26160;51.858;4.398;2023-04-06T10:36:32;8.10;99.90
40454;DHT22;26160;51.858;4.398;2023-04-06T10:39:07;8.20;99.90
40454;DHT22;26160;51.858;4.398;2023-04-06T10:41:35;8.10;99.90
40454;DHT22;26160;51.858;4.398;2023-04-06T10:44:02;8.10;99.90
40454;DHT22;26160;51.858;4.398;2023-04-06T10:46:30;8.10;99.90
40454;DHT22;26160;51.858;4.398;2023-04-06T10:48:57;8.20;99.90
40454;DHT22;26160;51.858;4.398;2023-04-06T10:51:28;8.30;99.90
40454;DHT22;26160;51.858;4.398;2023-04-06T10:53:58;8.30;99.90
40454;DHT22;26160;51.858;4.398;2023-04-06T10:56:25;8.30;99.90
40454;DHT22;26160;51.858;4.398;2023-04-06T10:58:54;8.40;99.90
40454;DHT22;26160;51.858;4.398;2023-04-06T11:01:24;8.40;99.90
40454;DHT22;26160;51.858;4.398;2023-04-06T11:03:59;8.40;99.90
40454;DHT22;26160;51.858;4.398;2023-04-06T11:06:29;8.30;99.90
40454;DHT22;26160;51.858;4.398;2023-04-06T11:08:57;8.30;99.90
40454;DHT22;26160;51.858;4.398;2023-04-06T11:14:00;8.30;99.90
40454;DHT22;26160;51.858;4.398;2023-04-06T11:55:48;8.30;99.90
40454;DHT22;26160;51.858;4.398;2023-04-06T12:04:15;8.30;99.90
40454;DHT22;26160;51.858;4.398;2023-04-06T12:06:54;8.30;99.90
40454;DHT22;26160;51.858;4.398;2023-04-06T12:10:08;8.40;99.90
40454;DHT22;26160;51.858;4.398;2023-04-06T12:12:42;8.40;99.90
40454;DHT22;26160;51.858;4.398;2023-04-06T12:15:26;8.40;99.90
40454;DHT22;26160;51.858;4.398;2023-04-06T12:18:11;8.40;99.90
40454;DHT22;26160;51.858;4.398;2023-04-06T12:21:10;8.30;99.90
40454;DHT22;26160;51.858;4.398;2023-04-06T12:24:09;8.20;99.90
40454;DHT22;26160;51.858;4.398;2023-04-06T12:26:48;8.20;99.90
40454;DHT22;26160;51.858;4.398;2023-04-06T12:31:51;8.20;99.90
40454;DHT22;26160;51.858;4.398;2023-04-06T12:34:20;8.20;99.90
40454;DHT22;26160;51.858;4.398;2023-04-06T12:36:55;8.20;99.90
40454;DHT22;26160;51.858;4.398;2023-04-06T12:42:05;8.20;99.90
40454;DHT22;26160;51.858;4.398;2023-04-06T12:44:53;8.20;99.90
40454;DHT22;26160;51.858;4.398;2023-04-06T12:47:22;8.20;99.90
40454;DHT22;26160;51.858;4.398;2023-04-06T12:50:00;8.10;99.90
40454;DHT22;26160;51.858;4.398;2023-04-06T12:52:31;8.20;99.90
40454;DHT22;26160;51.858;4.398;2023-04-06T12:55:03;8.30;99.90
40454;DHT22;26160;51.858;4.398;2023-04-06T12:57:42;8.30;99.90
40454;DHT22;26160;51.858;4.398;2023-04-06T13:00:11;8.30;99.90
40454;DHT22;26160;51.858;4.398;2023-04-06T13:02:59;8.30;99.90
40454;DHT22;26160;51.858;4.398;2023-04-06T13:05:36;8.30;99.90
40454;DHT22;26160;51.858;4.398;2023-04-06T13:11:18;8.40;99.90
40454;DHT22;26160;51.858;4.398;2023-04-06T13:13:44;8.40;99.90
40454;DHT22;26160;51.858;4.398;2023-04-06T13:16:13;8.50;99.90
40454;DHT22;26160;51.858;4.398;2023-04-06T13:18:51;8.40;99.90
40454;DHT22;26160;51.858;4.398;2023-04-06T13:21:29;8.50;99.90
40454;DHT22;26160;51.858;4.398;2023-04-06T13:23:59;8.50;99.90
40454;DHT22;26160;51.858;4.398;2023-04-06T13:26:37;8.50;99.90
40454;DHT22;26160;51.858;4.398;2023-04-06T13:29:07;8.50;99.90
40454;DHT22;26160;51.858;4.398;2023-04-06T13:31:37;8.50;99.90
40454;DHT22;26160;51.858;4.398;2023-04-06T13:34:15;8.50;99.90
40454;DHT22;26160;51.858;4.398;2023-04-06T13:37:37;8.50;99.90
40454;DHT22;26160;51.858;4.398;2023-04-06T13:40:14;8.50;99.90
40454;DHT22;26160;51.858;4.398;2023-04-06T13:42:51;8.60;99.90
40454;DHT22;26160;51.858;4.398;2023-04-06T14:10:44;8.60;99.90
40454;DHT22;26160;51.858;4.398;2023-04-06T14:24:41;8.70;99.90
40454;DHT22;26160;51.858;4.398;2023-04-06T14:41:24;8.80;99.90
40454;DHT22;26160;51.858;4.398;2023-04-06T14:43:52;8.80;99.90
40454;DHT22;26160;51.858;4.398;2023-04-06T14:46:21;8.90;99.90
40454;DHT22;26160;51.858;4.398;2023-04-06T14:48:48;8.80;99.90
40454;DHT22;26160;51.858;4.398;2023-04-06T14:51:16;8.80;99.90
40454;DHT22;26160;51.858;4.398;2023-04-06T14:53:45;8.80;99.90
40454;DHT22;26160;51.858;4.398;2023-04-06T14:56:13;8.90;99.90
40454;DHT22;26160;51.858;4.398;2023-04-06T14:58:40;8.90;99.90
40454;DHT22;26160;51.858;4.398;2023-04-06T15:01:08;8.90;99.90
40454;DHT22;26160;51.858;4.398;2023-04-06T15:03:35;9.00;99.90
40454;DHT22;26160;51.858;4.398;2023-04-06T15:06:06;9.00;99.90
40454;DHT22;26160;51.858;4.398;2023-04-06T15:09:21;8.90;99.90
40454;DHT22;26160;51.858;4.398;2023-04-06T15:12:24;8.90;99.90
40454;DHT22;26160;51.858;4.398;2023-04-06T15:15:09;8.90;99.90
40454;DHT22;26160;51.858;4.398;2023-04-06T15:17:54;8.90;99.90
40454;DHT22;26160;51.858;4.398;2023-04-06T15:20:36;8.90;99.90
40454;DHT22;26160;51.858;4.398;2023-04-06T15:23:04;8.90;99.90
40454;DHT22;26160;51.858;4.398;2023-04-06T15:25:56;8.90;99.90
40454;DHT22;26160;51.858;4.398;2023-04-06T15:28:22;8.90;99.90
40454;DHT22;26160;51.858;4.398;2023-04-06T15:30:48;8.90;99.90
40454;DHT22;26160;51.858;4.398;2023-04-06T15:33:14;8.90;99.90
40454;DHT22;26160;51.858;4.398;2023-04-06T15:35:40;8.90;99.90
40454;DHT22;26160;51.858;4.398;2023-04-06T15:38:09;8.90;99.90
40454;DHT22;26160;51.858;4.398;2023-04-06T15:48:26;9.00;99.90
40454;DHT22;26160;51.858;4.398;2023-04-06T15:53:32;9.00;99.90
40454;DHT22;26160;51.858;4.398;2023-04-06T15:56:07;9.00;99.90
40454;DHT22;26160;51.858;4.398;2023-04-06T15:58:44;9.00;99.90
40454;DHT22;26160;51.858;4.398;2023-04-06T16:06:58;9.10;99.90
40454;DHT22;26160;51.858;4.398;2023-04-06T16:09:31;9.10;99.90
40454;DHT22;26160;51.858;4.398;2023-04-06T16:11:58;9.10;99.90
40454;DHT22;26160;51.858;4.398;2023-04-06T16:14:34;9.10;99.90
40454;DHT22;26160;51.858;4.398;2023-04-06T16:17:00;9.10;99.90
40454;DHT22;26160;51.858;4.398;2023-04-06T16:19:26;9.10;99.90
40454;DHT22;26160;51.858;4.398;2023-04-06T16:21:59;9.10;99.90
40454;DHT22;26160;51.858;4.398;2023-04-06T16:24:33;9.10;99.90
40454;DHT22;26160;51.858;4.398;2023-04-06T16:27:00;9.10;99.90
40454;DHT22;26160;51.858;4.398;2023-04-06T16:29:26;9.20;99.90
40454;DHT22;26160;51.858;4.398;2023-04-06T16:31:55;9.20;99.90
40454;DHT22;26160;51.858;4.398;2023-04-06T16:34:21;9.20;99.90
40454;DHT22;26160;51.858;4.398;2023-04-06T16:36:47;9.20;99.90
40454;DHT22;26160;51.858;4.398;2023-04-06T16:39:14;9.20;99.90
40454;DHT22;26160;51.858;4.398;2023-04-06T16:41:44;9.30;99.90
40454;DHT22;26160;51.858;4.398;2023-04-06T16:44:10;9.30;99.90
40454;DHT22;26160;51.858;4.398;2023-04-06T16:46:38;9.30;99.90
40454;DHT22;26160;51.858;4.398;2023-04-06T16:49:04;9.30;99.90
40454;DHT22;26160;51.858;4.398;2023-04-06T16:51:34;9.30;99.90
40454;DHT22;26160;51.858;4.398;2023-04-06T16:54:02;9.30;99.90
40454;DHT22;26160;51.858;4.398;2023-04-06T16:56:28;9.40;99.90
40454;DHT22;26160;51.858;4.398;2023-04-06T16:58:54;9.40;99.90
40454;DHT22;26160;51.858;4.398;2023-04-06T17:01:28;9.40;99.90
40454;DHT22;26160;51.858;4.398;2023-04-06T17:03:55;9.40;99.90
40454;DHT22;26160;51.858;4.398;2023-04-06T17:06:22;9.40;99.90
40454;DHT22;26160;51.858;4.398;2023-04-06T17:08:52;9.50;99.90
40454;DHT22;26160;51.858;4.398;2023-04-06T17:11:27;9.50;99.90
40454;DHT22;26160;51.858;4.398;2023-04-06T17:13:53;9.50;99.90
40454;DHT22;26160;51.858;4.398;2023-04-06T17:16:23;9.50;99.90
40454;DHT22;26160;51.858;4.398;2023-04-06T17:18:50;9.50;99.90
40454;DHT22;26160;51.858;4.398;2023-04-06T17:21:16;9.50;99.90
40454;DHT22;26160;51.858;4.398;2023-04-06T17:23:46;9.50;99.90
40454;DHT22;26160;51.858;4.398;2023-04-06T17:26:12;9.60;99.90
40454;DHT22;26160;51.858;4.398;2023-04-06T17:32:09;9.60;99.90
40454;DHT22;26160;51.858;4.398;2023-04-06T17:35:00;9.70;99.90
40454;DHT22;26160;51.858;4.398;2023-04-06T17:37:52;9.70;99.90
40454;DHT22;26160;51.858;4.398;2023-04-06T17:40:26;9.80;99.90
40454;DHT22;26160;51.858;4.398;2023-04-06T17:43:03;9.80;99.90
40454;DHT22;26160;51.858;4.398;2023-04-06T17:45:32;9.70;99.90
40454;DHT22;26160;51.858;4.398;2023-04-06T17:47:58;9.80;99.90
40454;DHT22;26160;51.858;4.398;2023-04-06T17:50:24;9.80;99.90
40454;DHT22;26160;51.858;4.398;2023-04-06T17:52:51;9.90;99.90
40454;DHT22;26160;51.858;4.398;2023-04-06T17:55:29;9.90;99.90
40454;DHT22;26160;51.858;4.398;2023-04-06T17:57:58;9.90;99.90
40454;DHT22;26160;51.858;4.398;2023-04-06T18:00:27;9.90;99.90
40454;DHT22;26160;51.858;4.398;2023-04-06T18:02:54;9.90;99.90
40454;DHT22;26160;51.858;4.398;2023-04-06T18:05:20;9.80;99.90
40454;DHT22;26160;51.858;4.398;2023-04-06T18:07:47;9.80;99.90
40454;DHT22;26160;51.858;4.398;2023-04-06T18:10:14;9.70;99.90
40454;DHT22;26160;51.858;4.398;2023-04-06T18:12:45;9.70;99.90
40454;DHT22;26160;51.858;4.398;2023-04-06T18:17:49;9.60;99.90
40454;DHT22;26160;51.858;4.398;2023-04-06T18:20:25;9.70;99.90
40454;DHT22;26160;51.858;4.398;2023-04-06T18:25:39;9.60;99.90